CLX334 LIRF-LIMC
Flight info
| Callsign | CLX334 |
|---|---|
| Flight time | 0h 27m |
| Altitude | 30000 |
| Route | NEMBO DCT UPDIN DCT SPEZI DCT IDONA DCT MEBUR |
| Aircraft | B748/H-SDE3FGHIM1M2RWXY/LB1 |
Departure
| Time | 2026-05-07 12:52 |
|---|---|
| Airport | Rome–Fiumicino Leonardo da Vinci International Airport (LIRF) |
Arrival
| Time | 2026-05-07 13:20 |
|---|---|
| Airport | Milan Malpensa International Airport (LIMC) |
| Time | Latitude | Longitude | Altitude | Speed | Heading |
|---|---|---|---|---|---|
| 2026-05-07 12:35 | 41.79583 | 12.24045 | 20 ft | 0 kts | 69° |
| 2026-05-07 12:42 | 41.79581 | 12.24036 | 25 ft | 2 kts | 69° |
| 2026-05-07 12:42 | 41.79574 | 12.24016 | 26 ft | 2 kts | 66° |
| 2026-05-07 12:43 | 41.79567 | 12.23995 | 26 ft | 2 kts | 62° |
| 2026-05-07 12:43 | 41.79559 | 12.23976 | 26 ft | 2 kts | 55° |
| 2026-05-07 12:43 | 41.79549 | 12.23959 | 26 ft | 2 kts | 40° |
| 2026-05-07 12:43 | 41.79534 | 12.23948 | 26 ft | 2 kts | 0° |
| 2026-05-07 12:44 | 41.79521 | 12.23950 | 26 ft | 1 kts | 341° |
| 2026-05-07 12:44 | 41.79519 | 12.23950 | 26 ft | 0 kts | 341° |
| 2026-05-07 12:47 | 41.79522 | 12.23949 | 26 ft | 2 kts | 340° |
| 2026-05-07 12:47 | 41.79544 | 12.23938 | 26 ft | 5 kts | 339° |
| 2026-05-07 12:47 | 41.79588 | 12.23916 | 23 ft | 8 kts | 340° |
| 2026-05-07 12:47 | 41.79648 | 12.23884 | 23 ft | 7 kts | 327° |
| 2026-05-07 12:48 | 41.79667 | 12.23860 | 24 ft | 1 kts | 305° |
| 2026-05-07 12:48 | 41.79674 | 12.23841 | 23 ft | 2 kts | 293° |
| 2026-05-07 12:48 | 41.79682 | 12.23803 | 24 ft | 9 kts | 289° |
| 2026-05-07 12:48 | 41.79750 | 12.23723 | 26 ft | 19 kts | 336° |
| 2026-05-07 12:49 | 41.79906 | 12.23651 | 22 ft | 29 kts | 341° |
| 2026-05-07 12:49 | 41.80128 | 12.23554 | 22 ft | 39 kts | 342° |
| 2026-05-07 12:49 | 41.80414 | 12.23437 | 24 ft | 47 kts | 343° |
| 2026-05-07 12:49 | 41.80752 | 12.23294 | 25 ft | 55 kts | 341° |
| 2026-05-07 12:50 | 41.81136 | 12.23134 | 25 ft | 61 kts | 343° |
| 2026-05-07 12:50 | 41.81351 | 12.23048 | 26 ft | 32 kts | 339° |
| 2026-05-07 12:50 | 41.81479 | 12.22824 | 25 ft | 31 kts | 288° |
| 2026-05-07 12:50 | 41.81463 | 12.22699 | 22 ft | 2 kts | 197° |
| 2026-05-07 12:51 | 41.81448 | 12.22699 | 23 ft | 2 kts | 178° |
| 2026-05-07 12:51 | 41.81413 | 12.22701 | 23 ft | 6 kts | 175° |
| 2026-05-07 12:51 | 41.81373 | 12.22715 | 21 ft | 12 kts | 164° |
| 2026-05-07 12:51 | 41.81022 | 12.22862 | 23 ft | 100 kts | 162° |
| 2026-05-07 12:52 | 41.80076 | 12.23263 | 28 ft | 182 kts | 162° |
| 2026-05-07 12:52 | 41.78737 | 12.23867 | 327 ft | 224 kts | 162° |
| 2026-05-07 12:52 | 41.77168 | 12.24619 | 689 ft | 251 kts | 161° |
| 2026-05-07 12:52 | 41.75476 | 12.25387 | 1009 ft | 263 kts | 166° |
| 2026-05-07 12:53 | 41.73623 | 12.25530 | 1375 ft | 268 kts | 193° |
| 2026-05-07 12:53 | 41.71983 | 12.24639 | 2635 ft | 244 kts | 212° |
| 2026-05-07 12:53 | 41.70899 | 12.23129 | 4050 ft | 218 kts | 245° |
| 2026-05-07 12:53 | 41.70493 | 12.21226 | 4993 ft | 217 kts | 258° |
| 2026-05-07 12:54 | 41.70424 | 12.19134 | 5301 ft | 241 kts | 285° |
| 2026-05-07 12:54 | 41.75890 | 12.13043 | 7999 ft | 273 kts | 318° |
| 2026-05-07 12:54 | 41.81810 | 12.06052 | 10683 ft | 300 kts | 317° |
| 2026-05-07 12:54 | 41.89081 | 11.97626 | 11770 ft | 376 kts | 317° |
| 2026-05-07 12:55 | 41.97040 | 11.88378 | 14474 ft | 386 kts | 316° |
| 2026-05-07 12:55 | 42.05160 | 11.78913 | 16740 ft | 394 kts | 315° |
| 2026-05-07 12:55 | 42.13535 | 11.69116 | 18733 ft | 405 kts | 315° |
| 2026-05-07 12:55 | 42.22153 | 11.58998 | 20431 ft | 415 kts | 314° |
| 2026-05-07 12:56 | 42.30929 | 11.48655 | 22021 ft | 424 kts | 314° |
| 2026-05-07 12:56 | 42.39905 | 11.38033 | 23447 ft | 432 kts | 313° |
| 2026-05-07 12:56 | 42.47228 | 11.29339 | 24457 ft | 435 kts | 313° |
| 2026-05-07 12:56 | 42.56347 | 11.18470 | 25605 ft | 439 kts | 313° |
| 2026-05-07 12:57 | 42.65559 | 11.07446 | 26746 ft | 444 kts | 312° |
| 2026-05-07 12:57 | 42.74872 | 10.96255 | 27925 ft | 449 kts | 312° |
| 2026-05-07 12:57 | 42.84280 | 10.84901 | 29138 ft | 456 kts | 312° |
| 2026-05-07 12:57 | 42.93862 | 10.73285 | 30011 ft | 468 kts | 312° |
| 2026-05-07 12:58 | 43.13146 | 10.49766 | 30013 ft | 463 kts | 312° |
| 2026-05-07 12:58 | 43.32289 | 10.26210 | 30020 ft | 461 kts | 312° |
| 2026-05-07 12:59 | 43.48740 | 10.05797 | 30024 ft | 460 kts | 312° |
| 2026-05-07 12:59 | 43.67569 | 9.82240 | 30045 ft | 458 kts | 312° |
| 2026-05-07 13:00 | 43.86243 | 9.58670 | 30019 ft | 458 kts | 312° |
| 2026-05-07 13:00 | 44.04197 | 9.41072 | 30020 ft | 483 kts | 340° |
| 2026-05-07 13:01 | 44.10792 | 9.39090 | 30015 ft | 484 kts | 340° |
| 2026-05-07 13:01 | 44.17339 | 9.36808 | 29726 ft | 486 kts | 340° |
| 2026-05-07 13:02 | 44.20622 | 9.35732 | 29324 ft | 483 kts | 341° |
| 2026-05-07 13:02 | 44.23867 | 9.34698 | 28936 ft | 478 kts | 340° |
| 2026-05-07 13:02 | 44.27097 | 9.33621 | 28544 ft | 472 kts | 340° |
| 2026-05-07 13:02 | 44.30269 | 9.32521 | 28161 ft | 466 kts | 338° |
| 2026-05-07 13:03 | 44.33316 | 9.31123 | 27793 ft | 458 kts | 333° |
| 2026-05-07 13:03 | 44.36272 | 9.29487 | 27430 ft | 455 kts | 332° |
| 2026-05-07 13:03 | 44.39227 | 9.27894 | 27031 ft | 456 kts | 335° |
| 2026-05-07 13:03 | 44.42032 | 9.26605 | 26606 ft | 456 kts | 337° |
| 2026-05-07 13:04 | 44.44679 | 9.25432 | 26211 ft | 453 kts | 336° |
| 2026-05-07 13:04 | 44.47639 | 9.24000 | 25762 ft | 446 kts | 335° |
| 2026-05-07 13:04 | 44.50527 | 9.22538 | 25320 ft | 438 kts | 335° |
| 2026-05-07 13:04 | 44.53403 | 9.21133 | 24872 ft | 432 kts | 336° |
| 2026-05-07 13:05 | 44.56226 | 9.19793 | 24439 ft | 425 kts | 336° |
| 2026-05-07 13:05 | 44.58999 | 9.18456 | 24006 ft | 418 kts | 336° |
| 2026-05-07 13:05 | 44.61725 | 9.17116 | 23575 ft | 412 kts | 336° |
| 2026-05-07 13:05 | 44.64422 | 9.15794 | 23077 ft | 408 kts | 336° |
| 2026-05-07 13:06 | 44.67100 | 9.14495 | 22574 ft | 404 kts | 336° |
| 2026-05-07 13:06 | 44.69750 | 9.13207 | 22064 ft | 401 kts | 337° |
| 2026-05-07 13:06 | 44.72364 | 9.11929 | 21592 ft | 397 kts | 337° |
| 2026-05-07 13:06 | 44.74968 | 9.10654 | 21132 ft | 394 kts | 337° |
| 2026-05-07 13:07 | 44.77547 | 9.09393 | 20662 ft | 391 kts | 337° |
| 2026-05-07 13:07 | 44.80111 | 9.08139 | 20208 ft | 389 kts | 337° |
| 2026-05-07 13:07 | 44.82661 | 9.06888 | 19774 ft | 387 kts | 337° |
| 2026-05-07 13:07 | 44.85202 | 9.05640 | 19325 ft | 385 kts | 338° |
| 2026-05-07 13:08 | 44.87729 | 9.04401 | 18885 ft | 383 kts | 338° |
| 2026-05-07 13:08 | 44.90240 | 9.03167 | 18466 ft | 381 kts | 338° |
| 2026-05-07 13:08 | 44.92741 | 9.01936 | 18017 ft | 379 kts | 338° |
| 2026-05-07 13:08 | 44.95226 | 9.00713 | 17537 ft | 377 kts | 338° |
| 2026-05-07 13:09 | 44.97692 | 8.99497 | 17064 ft | 375 kts | 338° |
| 2026-05-07 13:09 | 45.00111 | 8.98304 | 16611 ft | 373 kts | 338° |
| 2026-05-07 13:09 | 45.02551 | 8.97100 | 16150 ft | 371 kts | 338° |
| 2026-05-07 13:09 | 45.05008 | 8.95885 | 15693 ft | 368 kts | 338° |
| 2026-05-07 13:10 | 45.07422 | 8.94691 | 15237 ft | 366 kts | 338° |
| 2026-05-07 13:10 | 45.09809 | 8.93510 | 14802 ft | 361 kts | 338° |
| 2026-05-07 13:10 | 45.12165 | 8.92344 | 14355 ft | 354 kts | 338° |
| 2026-05-07 13:10 | 45.14406 | 8.91235 | 13852 ft | 331 kts | 338° |
| 2026-05-07 13:11 | 45.16520 | 8.90187 | 13298 ft | 312 kts | 338° |
| 2026-05-07 13:11 | 45.18514 | 8.89195 | 12749 ft | 296 kts | 338° |
| 2026-05-07 13:11 | 45.20411 | 8.88250 | 12207 ft | 282 kts | 338° |
| 2026-05-07 13:11 | 45.22223 | 8.87350 | 11690 ft | 269 kts | 338° |
| 2026-05-07 13:12 | 45.23921 | 8.86504 | 11221 ft | 249 kts | 338° |
| 2026-05-07 13:12 | 45.25529 | 8.85703 | 10730 ft | 243 kts | 338° |
| 2026-05-07 13:12 | 45.27124 | 8.84905 | 10286 ft | 242 kts | 338° |
| 2026-05-07 13:12 | 45.28714 | 8.84112 | 9840 ft | 242 kts | 339° |
| 2026-05-07 13:13 | 45.30300 | 8.83321 | 9365 ft | 241 kts | 339° |
| 2026-05-07 13:13 | 45.31881 | 8.82532 | 8941 ft | 240 kts | 339° |
| 2026-05-07 13:13 | 45.33431 | 8.81757 | 8533 ft | 239 kts | 339° |
| 2026-05-07 13:13 | 45.34998 | 8.81008 | 8099 ft | 237 kts | 345° |
| 2026-05-07 13:14 | 45.36610 | 8.80606 | 7705 ft | 230 kts | 348° |
| 2026-05-07 13:14 | 45.38025 | 8.80227 | 7309 ft | 218 kts | 348° |
| 2026-05-07 13:14 | 45.39485 | 8.79827 | 6867 ft | 211 kts | 348° |
| 2026-05-07 13:14 | 45.40922 | 8.79431 | 6426 ft | 209 kts | 348° |
| 2026-05-07 13:15 | 45.42334 | 8.79042 | 5957 ft | 203 kts | 348° |
| 2026-05-07 13:15 | 45.43729 | 8.78657 | 5379 ft | 204 kts | 348° |
| 2026-05-07 13:15 | 45.45039 | 8.78295 | 4894 ft | 202 kts | 348° |
| 2026-05-07 13:15 | 45.46397 | 8.77921 | 4361 ft | 192 kts | 348° |
| 2026-05-07 13:16 | 45.47673 | 8.77569 | 3946 ft | 178 kts | 348° |
| 2026-05-07 13:16 | 45.48838 | 8.77257 | 3600 ft | 175 kts | 349° |
| 2026-05-07 13:16 | 45.50068 | 8.76920 | 2933 ft | 181 kts | 349° |
| 2026-05-07 13:16 | 45.51239 | 8.76597 | 2705 ft | 166 kts | 349° |
| 2026-05-07 13:17 | 45.52367 | 8.76286 | 2502 ft | 165 kts | 349° |
| 2026-05-07 13:17 | 45.53495 | 8.75975 | 2297 ft | 165 kts | 349° |
| 2026-05-07 13:17 | 45.54604 | 8.75668 | 2089 ft | 164 kts | 349° |
| 2026-05-07 13:17 | 45.55736 | 8.75356 | 1883 ft | 164 kts | 348° |
| 2026-05-07 13:18 | 45.56855 | 8.75049 | 1730 ft | 163 kts | 348° |
| 2026-05-07 13:18 | 45.57929 | 8.74751 | 1525 ft | 163 kts | 349° |
| 2026-05-07 13:18 | 45.59050 | 8.74435 | 1261 ft | 164 kts | 348° |
| 2026-05-07 13:18 | 45.60160 | 8.74124 | 1006 ft | 163 kts | 349° |
| 2026-05-07 13:19 | 45.61255 | 8.73829 | 783 ft | 162 kts | 348° |
| 2026-05-07 13:19 | 45.62323 | 8.73531 | 726 ft | 134 kts | 349° |
| 2026-05-07 13:19 | 45.63085 | 8.73337 | 720 ft | 97 kts | 349° |
| 2026-05-07 13:19 | 45.63598 | 8.73176 | 725 ft | 61 kts | 340° |
| 2026-05-07 13:20 | 45.63840 | 8.72864 | 726 ft | 37 kts | 305° |
| 2026-05-07 13:20 | 45.63977 | 8.72501 | 725 ft | 43 kts | 272° |